Time;durP1;ratioP1;P1;durP2;ratioP2;P2;SDS_P1;SDS_P2;PMS_P1;PMS_P2;Temp;Humidity;BMP_temperature;BMP_pressure;BME280_temperature;BME280_humidity;BME280_pressure;Samples;Min_cycle;Max_cycle;Signal;HPM_P1;HPM_P2
2023/09/29 00:00:12;;;;;;;12.32;6.38;;;;;;;20.06;59.62;101164.66;2115494;28;20040;-68
2023/09/29 00:01:15;;;;;;;14.93;7.28;;;;;;;20.04;59.63;101155.19;2108374;28;20106;-68
2023/09/29 00:02:18;;;;;;;13.90;6.38;;;;;;;20.02;59.56;101158.28;2098481;28;20021;-68
2023/09/29 00:03:19;;;;;;;12.75;6.72;;;;;;;20.02;59.46;101158.28;2093624;28;20104;-68
2023/09/29 00:04:23;;;;;;;12.02;6.68;;;;;;;20.00;59.75;101160.53;2108148;27;20028;-69
2023/09/29 00:05:30;;;;;;;10.20;6.55;;;;;;;19.99;59.73;101166.31;2107408;28;20794;-69
2023/09/29 00:06:33;;;;;;;12.30;6.95;;;;;;;19.99;59.74;101158.13;2108462;27;20028;-68
2023/09/29 00:07:37;;;;;;;13.45;6.47;;;;;;;19.99;59.95;101158.13;2106850;28;20032;-68
2023/09/29 00:08:39;;;;;;;16.42;6.85;;;;;;;20.00;60.13;101165.97;2098994;28;20037;-68
2023/09/29 00:09:41;;;;;;;13.77;6.80;;;;;;;20.01;60.02;101161.31;2090412;28;20844;-67
2023/09/29 00:11:02;;;;;;;13.40;7.60;;;;;;;20.01;59.96;101164.03;2090417;28;20906;-68
2023/09/29 00:12:03;;;;;;;15.48;6.88;;;;;;;20.02;59.90;101166.47;2105078;28;20224;-67
2023/09/29 00:13:04;;;;;;;13.20;7.28;;;;;;;20.03;59.87;101165.31;2098494;28;20040;-68
2023/09/29 00:14:09;;;;;;;11.02;6.65;;;;;;;20.02;59.99;101157.44;2098428;28;21049;-67
2023/09/29 00:15:11;;;;;;;13.82;6.50;;;;;;;20.03;60.20;101159.06;2098747;28;20033;-68
2023/09/29 00:16:12;;;;;;;12.18;6.50;;;;;;;20.03;60.12;101161.81;2090203;28;20123;-68
2023/09/29 00:17:16;;;;;;;14.20;6.82;;;;;;;20.04;60.19;101166.13;2090556;28;20146;-68
2023/09/29 00:18:19;;;;;;;12.52;6.72;;;;;;;20.02;60.08;101163.75;2082738;28;20136;-69
2023/09/29 00:19:23;;;;;;;10.32;6.55;;;;;;;20.02;60.06;101162.91;2095863;28;20843;-69
2023/09/29 00:20:25;;;;;;;9.80;6.65;;;;;;;19.99;60.09;101161.66;2098519;28;20041;-69
2023/09/29 00:21:28;;;;;;;13.10;7.05;;;;;;;19.97;59.94;101166.63;2098791;28;20279;-68
2023/09/29 00:22:29;;;;;;;9.75;6.88;;;;;;;19.95;60.02;101163.41;2098540;28;20152;-68
2023/09/29 00:23:31;;;;;;;12.00;6.80;;;;;;;19.93;60.07;101160.25;2098795;28;20061;-68
2023/09/29 00:24:32;;;;;;;10.75;6.80;;;;;;;19.94;60.18;101166.50;2090025;28;20513;-68
2023/09/29 00:25:37;;;;;;;10.45;6.60;;;;;;;19.92;60.16;101166.81;2091093;28;20029;-68
2023/09/29 00:26:39;;;;;;;12.65;6.82;;;;;;;19.89;60.09;101165.56;2098847;28;20108;-68
2023/09/29 00:27:41;;;;;;;14.27;6.50;;;;;;;19.86;60.30;101162.66;2095214;28;20783;-68
2023/09/29 00:28:44;;;;;;;14.05;6.60;;;;;;;19.84;60.40;101162.19;2081593;28;20022;-67
2023/09/29 00:29:47;;;;;;;19.73;7.43;;;;;;;19.81;60.50;101162.84;2098831;28;20029;-67
2023/09/29 00:30:49;;;;;;;12.10;6.75;;;;;;;19.77;60.72;101157.25;2089631;28;20171;-67
2023/09/29 00:31:51;;;;;;;10.25;6.75;;;;;;;19.74;60.58;101159.81;2089917;28;20040;-68
2023/09/29 00:32:54;;;;;;;12.73;6.63;;;;;;;19.74;60.67;101157.91;2098133;28;20836;-67
2023/09/29 00:33:58;;;;;;;12.43;6.95;;;;;;;19.74;60.99;101159.81;2098458;28;20155;-67
2023/09/29 00:35:00;;;;;;;14.65;7.35;;;;;;;19.73;60.77;101155.47;2082949;28;20046;-68
2023/09/29 00:36:01;;;;;;;10.73;6.28;;;;;;;19.73;60.85;101163.66;2090153;28;20037;-68
2023/09/29 00:37:04;;;;;;;12.07;6.65;;;;;;;19.72;60.71;101157.41;2098449;28;20068;-68
2023/09/29 00:38:06;;;;;;;17.95;6.88;;;;;;;19.72;60.79;101162.88;2106806;28;20220;-68
2023/09/29 00:39:13;;;;;;;15.30;6.65;;;;;;;19.70;60.56;101154.19;2106979;28;20029;-69
2023/09/29 00:40:15;;;;;;;12.80;6.32;;;;;;;19.71;60.76;101163.22;2106824;28;20027;-68
2023/09/29 00:41:17;;;;;;;13.88;6.68;;;;;;;19.70;60.81;101156.13;2098269;28;20147;-69
2023/09/29 00:42:21;;;;;;;11.15;6.30;;;;;;;19.72;60.74;101156.63;2097254;28;20853;-68
2023/09/29 00:43:28;;;;;;;12.48;6.30;;;;;;;19.72;60.60;101159.34;2107616;28;20029;-68
2023/09/29 00:44:30;;;;;;;17.42;6.57;;;;;;;19.71;60.56;101153.09;2106698;28;20143;-68
2023/09/29 00:45:35;;;;;;;13.80;7.03;;;;;;;19.73;60.57;101147.28;2090778;28;20148;-69
2023/09/29 00:46:39;;;;;;;15.57;6.53;;;;;;;19.73;60.51;101155.47;2107208;28;20067;-68
2023/09/29 00:47:42;;;;;;;11.82;6.40;;;;;;;19.73;60.30;101153.53;2106130;28;20033;-68
2023/09/29 00:48:44;;;;;;;19.55;6.38;;;;;;;19.74;60.46;101157.09;2098685;28;20151;-68
2023/09/29 00:49:48;;;;;;;10.95;6.47;;;;;;;19.72;60.53;101153.88;2089984;28;20117;-68
2023/09/29 00:50:50;;;;;;;12.65;6.43;;;;;;;19.72;60.85;101157.41;2098883;28;20131;-68
2023/09/29 00:51:53;;;;;;;19.67;7.07;;;;;;;19.73;60.31;101160.94;2098350;28;20102;-68
2023/09/29 00:52:59;;;;;;;10.75;6.55;;;;;;;19.70;60.59;101148.75;2098698;28;20025;-67
2023/09/29 00:54:08;;;;;;;13.10;6.80;;;;;;;19.73;60.47;101150.03;2090688;28;20033;-68
2023/09/29 00:55:15;;;;;;;11.77;6.72;;;;;;;19.72;60.44;101148.44;2107011;28;20059;-68
2023/09/29 00:56:17;;;;;;;13.45;6.90;;;;;;;19.72;60.69;101146.50;2098387;28;20033;-68
2023/09/29 00:57:21;;;;;;;10.60;6.25;;;;;;;19.72;60.57;101146.50;2096704;28;20041;-68
2023/09/29 00:58:23;;;;;;;14.23;6.88;;;;;;;19.73;60.74;101144.56;2098154;28;20017;-67
2023/09/29 00:59:31;;;;;;;11.55;6.97;;;;;;;19.72;60.54;101148.44;2089859;28;20127;-67
2023/09/29 01:00:37;;;;;;;12.65;6.45;;;;;;;19.70;60.70;101148.75;2099353;28;20878;-67
2023/09/29 01:01:39;;;;;;;12.52;6.80;;;;;;;19.70;60.72;101143.28;2090726;28;20026;-67
2023/09/29 01:02:43;;;;;;;12.48;6.72;;;;;;;19.68;60.60;101143.63;2098680;28;20127;-67
2023/09/29 01:03:50;;;;;;;10.88;6.60;;;;;;;19.68;60.74;101146.34;2098940;28;20848;-67
2023/09/29 01:04:55;;;;;;;12.05;6.32;;;;;;;19.67;60.67;101152.13;2100923;28;20064;-67
2023/09/29 01:05:56;;;;;;;10.57;6.18;;;;;;;19.63;60.73;101149.22;2100120;28;20041;-67
2023/09/29 01:06:58;;;;;;;10.93;6.00;;;;;;;19.61;60.77;101142.50;2082947;28;20046;-66
2023/09/29 01:08:01;;;;;;;13.57;6.55;;;;;;;19.60;60.81;101141.69;2075430;28;20129;-66
2023/09/29 01:09:06;;;;;;;12.05;6.40;;;;;;;19.61;60.74;101147.97;2092225;28;20136;-67
2023/09/29 01:10:15;;;;;;;13.40;6.88;;;;;;;19.60;60.68;101146.34;2099639;28;20037;-67
2023/09/29 01:11:18;;;;;;;11.15;6.22;;;;;;;19.59;60.68;101144.75;2101024;28;20127;-67
2023/09/29 01:12:29;;;;;;;13.95;6.40;;;;;;;19.58;60.83;101148.59;2107508;28;20024;-67
2023/09/29 01:13:31;;;;;;;11.02;6.20;;;;;;;19.57;60.93;101146.97;2084184;28;20041;-67
2023/09/29 01:14:33;;;;;;;13.45;6.32;;;;;;;19.56;60.91;101140.72;2091914;28;20041;-67
2023/09/29 01:15:34;;;;;;;10.43;6.45;;;;;;;19.55;60.96;101144.59;2099948;28;20025;-67
2023/09/29 01:16:36;;;;;;;13.90;5.88;;;;;;;19.54;60.91;101142.97;2099541;28;20847;-67
2023/09/29 01:17:41;;;;;;;15.07;6.57;;;;;;;19.50;61.06;101135.78;2108053;28;20019;-66
2023/09/29 01:18:43;;;;;;;13.63;6.40;;;;;;;19.47;61.14;101141.88;2107920;28;20171;-66
2023/09/29 01:19:48;;;;;;;10.50;5.97;;;;;;;19.47;61.23;101137.22;2099601;28;20060;-67
2023/09/29 01:20:49;;;;;;;11.82;5.97;;;;;;;19.47;61.08;101134.50;2099794;28;20029;-67
2023/09/29 01:21:51;;;;;;;10.65;6.05;;;;;;;19.47;61.19;101142.69;2099411;28;20753;-66
2023/09/29 01:22:53;;;;;;;14.00;6.45;;;;;;;19.48;61.15;101135.28;2091422;28;20028;-67
2023/09/29 01:23:56;;;;;;;13.55;6.57;;;;;;;19.49;61.02;101132.25;2091304;28;20971;-67
2023/09/29 01:25:00;;;;;;;14.10;6.10;;;;;;;19.48;61.11;101138.03;2091179;28;20044;-67
2023/09/29 01:26:05;;;;;;;10.25;6.32;;;;;;;19.47;61.21;101131.78;2099933;28;20079;-67
2023/09/29 01:27:06;;;;;;;11.13;6.32;;;;;;;19.48;61.10;101130.63;2100028;28;20053;-67
2023/09/29 01:28:08;;;;;;;10.25;6.30;;;;;;;19.51;61.14;101137.38;2090243;28;20781;-67
2023/09/29 01:29:11;;;;;;;8.73;6.30;;;;;;;19.52;61.12;101139.78;2092187;28;20053;-67
2023/09/29 01:30:14;;;;;;;12.23;6.07;;;;;;;19.53;61.02;101135.94;2091626;28;20068;-67
2023/09/29 01:31:16;;;;;;;10.35;6.15;;;;;;;19.54;60.89;101144.91;2100197;28;20895;-67
2023/09/29 01:32:21;;;;;;;13.55;6.00;;;;;;;19.53;60.98;101140.59;2099222;28;20063;-67
2023/09/29 01:33:25;;;;;;;12.43;6.10;;;;;;;19.52;60.99;101142.50;2091888;28;20036;-67
2023/09/29 01:34:31;;;;;;;12.55;5.95;;;;;;;19.51;61.09;101142.81;2099767;28;20088;-67
2023/09/29 01:35:36;;;;;;;11.98;6.55;;;;;;;19.51;61.06;101145.56;2093380;28;20096;-67
2023/09/29 01:36:39;;;;;;;10.93;6.30;;;;;;;19.50;60.97;101157.59;2090957;28;20908;-67
2023/09/29 01:37:42;;;;;;;12.50;6.70;;;;;;;19.48;61.07;101159.84;2100146;28;20040;-66
2023/09/29 01:38:45;;;;;;;12.82;6.60;;;;;;;19.46;61.00;101157.44;2107588;28;20078;-67
2023/09/29 01:39:48;;;;;;;9.13;6.35;;;;;;;19.45;60.99;101155.81;2107608;28;20027;-66
2023/09/29 01:40:51;;;;;;;9.68;6.03;;;;;;;19.48;61.26;101159.84;2107447;28;20033;-67
2023/09/29 01:41:53;;;;;;;9.80;5.82;;;;;;;19.47;61.34;101156.31;2099975;28;20025;-67
2023/09/29 01:42:56;;;;;;;11.32;6.82;;;;;;;19.43;61.31;101161.63;2089859;28;20077;-67
2023/09/29 01:43:58;;;;;;;13.18;6.35;;;;;;;19.40;61.25;101159.53;2108018;28;20024;-67
2023/09/29 01:44:59;;;;;;;9.30;6.22;;;;;;;19.40;61.18;101153.28;2108097;28;20133;-67
2023/09/29 01:46:01;;;;;;;12.50;6.60;;;;;;;19.39;61.39;101157.16;2082496;28;20152;-67
2023/09/29 01:47:05;;;;;;;11.55;6.00;;;;;;;19.38;61.14;101150.88;2083725;28;20022;-66
2023/09/29 01:48:12;;;;;;;12.88;6.40;;;;;;;19.41;61.24;101157.59;2100495;28;20028;-68
2023/09/29 01:49:17;;;;;;;9.73;6.18;;;;;;;19.40;61.05;101158.75;2108141;28;20021;-68
2023/09/29 01:50:21;;;;;;;8.45;5.70;;;;;;;19.40;61.06;101156.81;2100113;28;20045;-68
2023/09/29 01:51:28;;;;;;;13.50;6.05;;;;;;;19.40;60.97;101154.09;2091032;28;20036;-68
2023/09/29 01:52:31;;;;;;;12.70;6.38;;;;;;;19.43;61.14;101156.16;2093947;28;20049;-69
2023/09/29 01:53:33;;;;;;;13.48;5.78;;;;;;;19.44;61.11;101159.69;2099678;28;20886;-68
2023/09/29 01:54:36;;;;;;;14.20;6.22;;;;;;;19.46;61.10;101162.91;2100040;28;20040;-68
2023/09/29 01:55:40;;;;;;;13.55;6.13;;;;;;;19.45;61.14;101153.09;2099389;28;20029;-68
2023/09/29 01:56:41;;;;;;;13.57;6.15;;;;;;;19.45;61.06;101159.38;2099709;28;20033;-68
2023/09/29 01:57:42;;;;;;;9.18;5.93;;;;;;;19.45;61.09;101155.81;2099616;28;20115;-69
2023/09/29 01:58:47;;;;;;;11.30;5.88;;;;;;;19.47;61.09;101161.78;2098236;28;20045;-68
2023/09/29 01:59:49;;;;;;;13.13;6.10;;;;;;;19.46;61.18;101162.91;2099520;28;20076;-69
2023/09/29 02:00:51;;;;;;;12.90;6.22;;;;;;;19.44;61.30;101156.97;2085904;28;20144;-68
2023/09/29 02:01:53;;;;;;;10.55;6.03;;;;;;;19.43;61.26;101163.53;2091276;28;20022;-68
2023/09/29 02:02:56;;;;;;;17.75;6.28;;;;;;;19.44;61.39;101165.13;2092090;28;20033;-68
2023/09/29 02:04:00;;;;;;;11.88;6.60;;;;;;;19.45;61.41;101164.00;2099725;28;20036;-68
2023/09/29 02:05:02;;;;;;;13.52;6.32;;;;;;;19.48;61.43;101168.03;2099820;28;20025;-68
2023/09/29 02:06:04;;;;;;;13.48;6.15;;;;;;;19.47;61.27;101164.50;2099135;28;20049;-68
2023/09/29 02:07:06;;;;;;;12.75;6.20;;;;;;;19.46;61.50;101162.91;2099640;28;20791;-68
2023/09/29 02:08:09;;;;;;;10.43;6.45;;;;;;;19.46;61.54;101165.63;2099327;28;20862;-68
2023/09/29 02:09:11;;;;;;;9.68;6.60;;;;;;;19.47;61.60;101167.22;2091866;28;20065;-68
2023/09/29 02:10:18;;;;;;;10.80;6.28;;;;;;;19.44;61.46;101171.41;2099819;28;20949;-68
2023/09/29 02:11:20;;;;;;;9.43;5.88;;;;;;;19.44;61.56;101160.47;2091453;28;20033;-68
2023/09/29 02:12:22;;;;;;;12.18;6.78;;;;;;;19.44;61.44;101156.97;2082981;28;20042;-68
2023/09/29 02:13:27;;;;;;;11.27;6.00;;;;;;;19.43;61.55;101153.44;2090414;28;20025;-68
2023/09/29 02:14:32;;;;;;;14.30;6.63;;;;;;;19.42;61.54;101161.97;2099754;28;20029;-68
2023/09/29 02:15:34;;;;;;;11.10;6.40;;;;;;;19.42;61.51;101156.50;2091245;28;20815;-68
2023/09/29 02:16:36;;;;;;;12.63;6.95;;;;;;;19.43;61.63;101158.09;2099570;28;20036;-68
2023/09/29 02:17:38;;;;;;;12.50;6.68;;;;;;;19.43;61.69;101158.09;2107336;28;20084;-68
2023/09/29 02:18:40;;;;;;;11.32;6.40;;;;;;;19.45;61.51;101150.38;2091570;28;20021;-68
2023/09/29 02:19:43;;;;;;;8.65;6.38;;;;;;;19.44;61.48;101154.22;2090872;28;20148;-68
2023/09/29 02:20:47;;;;;;;10.63;6.03;;;;;;;19.43;61.44;101158.88;2098886;28;20107;-68
2023/09/29 02:21:51;;;;;;;10.82;6.20;;;;;;;19.44;61.53;101149.56;2092780;28;20029;-68
2023/09/29 02:22:55;;;;;;;12.52;6.30;;;;;;;19.43;61.42;101152.63;2083226;28;20092;-68
2023/09/29 02:23:57;;;;;;;9.32;6.10;;;;;;;19.43;61.57;101152.63;2084258;28;20041;-68
2023/09/29 02:25:01;;;;;;;10.57;6.15;;;;;;;19.42;61.62;101151.03;2108161;28;20017;-68
2023/09/29 02:26:03;;;;;;;11.27;6.07;;;;;;;19.39;61.40;101144.31;2107753;28;20041;-68
2023/09/29 02:27:05;;;;;;;9.48;6.00;;;;;;;19.38;61.48;101144.63;2099623;28;20039;-68
2023/09/29 02:28:06;;;;;;;14.90;6.57;;;;;;;19.39;61.54;101146.25;2089358;28;20026;-69
2023/09/29 02:29:08;;;;;;;9.18;6.05;;;;;;;19.40;61.55;101150.56;2074380;28;20837;-68
2023/09/29 02:30:12;;;;;;;14.82;6.65;;;;;;;19.40;61.50;101147.84;2074518;28;20741;-68
2023/09/29 02:31:14;;;;;;;11.48;6.00;;;;;;;19.41;61.47;101143.97;2080012;28;20749;-69
2023/09/29 02:32:16;;;;;;;11.30;6.03;;;;;;;19.42;61.17;101143.66;2090706;28;20042;-68
2023/09/29 02:33:17;;;;;;;11.10;6.68;;;;;;;19.44;61.27;101149.56;2083062;28;20144;-68
2023/09/29 02:34:19;;;;;;;11.88;6.03;;;;;;;19.44;61.17;101137.88;2091118;28;20026;-68
2023/09/29 02:35:21;;;;;;;10.85;5.80;;;;;;;19.44;61.21;101146.06;2090907;28;20099;-68
2023/09/29 02:36:25;;;;;;;12.13;5.78;;;;;;;19.44;61.09;101143.31;2091310;28;20038;-68
2023/09/29 02:37:26;;;;;;;9.68;5.78;;;;;;;19.46;61.08;101132.91;2091869;28;20067;-68
2023/09/29 02:38:29;;;;;;;10.00;6.07;;;;;;;19.45;61.16;101134.84;2099597;28;20075;-68
2023/09/29 02:39:30;;;;;;;8.90;6.13;;;;;;;19.46;61.10;101138.34;2099803;28;20140;-68
2023/09/29 02:40:34;;;;;;;11.32;6.43;;;;;;;19.47;61.15;101137.22;2099622;28;20045;-68
2023/09/29 02:41:38;;;;;;;14.65;6.50;;;;;;;19.47;61.03;101137.22;2107757;28;20020;-68
2023/09/29 02:42:40;;;;;;;11.90;5.80;;;;;;;19.48;60.90;101132.56;2099078;28;20079;-68
2023/09/29 02:43:42;;;;;;;15.32;6.40;;;;;;;19.48;60.79;101138.81;2073612;28;20042;-68
2023/09/29 02:44:43;;;;;;;19.65;6.72;;;;;;;19.48;60.72;101138.81;2082913;28;20737;-68
2023/09/29 02:45:45;;;;;;;12.30;6.70;;;;;;;19.47;60.74;101131.78;2082904;28;20788;-68
2023/09/29 02:46:47;;;;;;;12.13;5.97;;;;;;;19.47;60.74;101133.69;2090587;28;20032;-68
2023/09/29 02:47:48;;;;;;;12.23;6.63;;;;;;;19.46;60.59;101135.63;2074916;28;20093;-68
2023/09/29 02:48:49;;;;;;;16.02;6.50;;;;;;;19.45;60.47;101131.28;2074263;28;20113;-68
2023/09/29 02:49:51;;;;;;;16.48;6.28;;;;;;;19.45;60.45;101126.66;2074797;28;20034;-69
2023/09/29 02:50:55;;;;;;;13.85;6.70;;;;;;;19.44;60.58;101126.97;2092235;28;20861;-69
2023/09/29 02:51:57;;;;;;;15.10;6.10;;;;;;;19.44;60.47;101130.47;2099143;28;20811;-68
2023/09/29 02:52:58;;;;;;;7.97;6.13;;;;;;;19.44;60.39;101126.97;2099350;28;20132;-68
2023/09/29 02:54:03;;;;;;;10.73;5.85;;;;;;;19.44;60.68;101133.22;2098957;28;20044;-68
2023/09/29 02:55:06;;;;;;;11.13;6.63;;;;;;;19.43;60.71;101126.16;2083554;28;20045;-68
2023/09/29 02:56:10;;;;;;;12.10;6.40;;;;;;;19.40;60.66;101121.34;2082949;28;20746;-68
2023/09/29 02:57:13;;;;;;;15.00;6.40;;;;;;;19.40;60.65;101120.56;2082899;28;20092;-68
2023/09/29 02:58:17;;;;;;;16.00;6.60;;;;;;;19.40;60.60;101123.28;2091500;28;20105;-68
2023/09/29 02:59:20;;;;;;;13.48;6.18;;;;;;;19.39;60.63;101124.44;2097667;28;20041;-67
2023/09/29 03:00:23;;;;;;;14.65;6.57;;;;;;;19.40;60.72;101120.56;2091105;28;20032;-67
2023/09/29 03:01:26;;;;;;;12.82;6.10;;;;;;;19.39;60.57;101117.03;2094461;28;20056;-67
2023/09/29 03:02:27;;;;;;;10.15;5.90;;;;;;;19.37;60.57;101110.31;2107710;28;20016;-67
2023/09/29 03:03:30;;;;;;;11.90;6.00;;;;;;;19.39;60.57;101110.78;2090106;28;20033;-67
2023/09/29 03:04:35;;;;;;;14.07;5.85;;;;;;;19.39;60.70;101113.53;2091360;28;20069;-68
2023/09/29 03:05:43;;;;;;;10.90;6.50;;;;;;;19.39;60.73;101108.06;2098674;28;20029;-68
2023/09/29 03:06:44;;;;;;;11.77;6.00;;;;;;;19.40;60.81;101106.94;2092482;28;20860;-68
2023/09/29 03:07:47;;;;;;;13.73;6.05;;;;;;;19.40;60.68;101105.00;2090893;28;20049;-67
2023/09/29 03:08:56;;;;;;;9.20;6.25;;;;;;;19.42;60.76;101101.97;2090631;28;20029;-66
2023/09/29 03:10:07;;;;;;;10.50;6.38;;;;;;;19.42;60.60;101104.69;2100042;28;21015;-66
2023/09/29 03:11:12;;;;;;;9.30;6.53;;;;;;;19.44;60.48;101105.16;2084197;28;20038;-66
2023/09/29 03:12:16;;;;;;;9.25;5.63;;;;;;;19.44;60.58;101100.50;2092067;28;20161;-66
2023/09/29 03:13:18;;;;;;;9.57;5.70;;;;;;;19.44;60.60;101103.22;2099095;28;20036;-66
2023/09/29 03:14:21;;;;;;;16.05;6.88;;;;;;;19.44;60.66;101099.69;2097897;28;20025;-66
2023/09/29 03:15:23;;;;;;;8.73;5.95;;;;;;;19.43;60.58;101098.09;2090804;28;20935;-67
2023/09/29 03:16:24;;;;;;;12.80;6.43;;;;;;;19.44;60.66;101105.16;2089974;28;20164;-67
2023/09/29 03:17:29;;;;;;;11.38;6.30;;;;;;;19.45;60.76;101095.84;2106227;28;20075;-68
2023/09/29 03:18:34;;;;;;;17.80;6.22;;;;;;;19.46;60.71;101100.19;2107248;28;20842;-67
2023/09/29 03:19:36;;;;;;;11.90;6.30;;;;;;;19.44;60.73;101103.22;2091116;28;20043;-67
2023/09/29 03:20:38;;;;;;;15.95;6.60;;;;;;;19.43;60.76;101092.66;2083098;28;20032;-67
2023/09/29 03:21:41;;;;;;;7.13;5.88;;;;;;;19.41;60.85;101094.88;2090548;28;20037;-67
2023/09/29 03:22:46;;;;;;;11.85;6.00;;;;;;;19.39;61.05;101092.50;2107221;28;20036;-67
2023/09/29 03:23:47;;;;;;;13.70;6.10;;;;;;;19.39;61.19;101105.34;2082700;28;20018;-67
2023/09/29 03:24:49;;;;;;;9.20;5.70;;;;;;;19.40;60.80;101101.47;2082590;28;20022;-67
2023/09/29 03:25:52;;;;;;;11.13;6.05;;;;;;;19.42;61.05;101102.75;2098851;28;20799;-67
2023/09/29 03:26:53;;;;;;;11.05;5.80;;;;;;;19.43;60.97;101100.81;2098119;28;20151;-67
2023/09/29 03:27:55;;;;;;;9.55;5.85;;;;;;;19.45;61.07;101106.75;2082341;28;20088;-67
2023/09/29 03:28:58;;;;;;;17.50;5.80;;;;;;;19.45;60.85;101101.28;2077379;28;20857;-72
2023/09/29 03:30:00;;;;;;;15.48;5.68;;;;;;;19.47;60.79;101104.50;2090138;28;20025;-71
2023/09/29 03:31:07;;;;;;;11.77;5.70;;;;;;;19.47;60.78;101101.78;2099615;28;20025;-71
2023/09/29 03:32:09;;;;;;;8.90;5.80;;;;;;;19.48;60.79;101103.38;2098838;28;20741;-69
2023/09/29 03:33:10;;;;;;;17.23;6.07;;;;;;;19.48;60.78;101097.91;2082623;28;20038;-70
2023/09/29 03:34:12;;;;;;;14.82;6.03;;;;;;;19.48;60.80;101100.63;2098717;28;20044;-70
2023/09/29 03:35:14;;;;;;;8.68;5.53;;;;;;;19.48;60.98;101100.63;2115932;28;20198;-68
2023/09/29 03:36:20;;;;;;;9.68;5.75;;;;;;;19.47;60.83;101095.53;2098614;28;20857;-68
2023/09/29 03:37:23;;;;;;;10.07;5.97;;;;;;;19.47;60.91;101101.78;2099423;28;20831;-68
2023/09/29 03:38:26;;;;;;;12.35;6.47;;;;;;;19.48;60.92;101095.19;2099143;28;20067;-68
2023/09/29 03:39:28;;;;;;;9.65;6.00;;;;;;;19.49;60.79;101091.34;2106861;28;20847;-68
2023/09/29 03:40:33;;;;;;;11.48;5.75;;;;;;;19.49;60.90;101088.63;2091120;28;20053;-69
2023/09/29 03:41:35;;;;;;;10.75;5.57;;;;;;;19.51;60.79;101091.81;2098842;28;20877;-68
2023/09/29 03:42:37;;;;;;;16.15;6.35;;;;;;;19.51;60.80;101091.81;2098839;28;20021;-69
2023/09/29 03:43:39;;;;;;;8.18;5.53;;;;;;;19.51;60.73;101091.00;2090600;28;20033;-69
2023/09/29 03:44:40;;;;;;;14.88;6.82;;;;;;;19.50;60.78;101092.94;2089720;28;20064;-69
2023/09/29 03:45:42;;;;;;;10.63;6.43;;;;;;;19.50;60.92;101092.94;2106942;28;20035;-69
2023/09/29 03:46:44;;;;;;;9.80;5.78;;;;;;;19.50;60.78;101082.03;2115441;28;20040;-68
2023/09/29 03:47:46;;;;;;;11.55;6.07;;;;;;;19.47;60.57;101076.44;2107033;28;20146;-69
2023/09/29 03:48:48;;;;;;;12.68;5.45;;;;;;;19.49;60.87;101080.44;2099024;28;20851;-68
2023/09/29 03:49:50;;;;;;;13.25;5.90;;;;;;;19.50;60.78;101081.22;2098745;28;20894;-68
2023/09/29 03:50:52;;;;;;;13.43;6.68;;;;;;;19.50;60.70;101081.22;2107442;28;20904;-68
2023/09/29 03:51:53;;;;;;;12.15;6.55;;;;;;;19.50;60.82;101082.03;2098182;28;20049;-68
2023/09/29 03:52:55;;;;;;;12.32;6.13;;;;;;;19.49;60.72;101077.72;2090765;28;20046;-69
2023/09/29 03:53:57;;;;;;;17.25;6.80;;;;;;;19.48;60.73;101073.38;2090565;28;20855;-68
2023/09/29 03:54:58;;;;;;;10.85;5.82;;;;;;;19.48;60.78;101073.38;2099213;28;20057;-68
2023/09/29 03:56:02;;;;;;;11.27;6.00;;;;;;;19.47;60.83;101079.94;2107268;28;20040;-68
2023/09/29 03:57:10;;;;;;;9.38;6.00;;;;;;;19.47;60.84;101070.97;2090967;28;20041;-68
2023/09/29 03:58:14;;;;;;;8.30;5.88;;;;;;;19.46;60.90;101072.91;2083537;28;20034;-69
2023/09/29 03:59:16;;;;;;;13.38;5.70;;;;;;;19.47;60.85;101076.44;2081460;28;20110;-68
2023/09/29 04:00:23;;;;;;;11.50;6.20;;;;;;;19.44;60.85;101070.50;2099349;28;20249;-69
2023/09/29 04:01:27;;;;;;;12.40;6.05;;;;;;;19.46;60.83;101075.63;2097833;28;20215;-68
2023/09/29 04:02:32;;;;;;;11.40;6.13;;;;;;;19.44;60.92;101072.41;2091783;28;20218;-68
2023/09/29 04:03:34;;;;;;;11.25;6.28;;;;;;;19.43;60.88;101071.63;2089787;28;20029;-68
2023/09/29 04:04:36;;;;;;;15.05;5.93;;;;;;;19.44;61.01;101069.69;2098861;28;20068;-68
2023/09/29 04:05:37;;;;;;;12.02;6.20;;;;;;;19.44;60.85;101061.50;2106996;28;20145;-68
2023/09/29 04:06:40;;;;;;;12.65;6.43;;;;;;;19.44;60.87;101066.97;2090426;28;20041;-68
2023/09/29 04:07:42;;;;;;;11.88;6.55;;;;;;;19.43;61.00;101066.16;2082200;28;20061;-68
2023/09/29 04:08:44;;;;;;;10.00;6.28;;;;;;;19.40;60.82;101060.56;2090464;28;21282;-69
2023/09/29 04:09:51;;;;;;;9.95;6.20;;;;;;;19.39;60.99;101058.97;2083141;28;20069;-69
2023/09/29 04:10:53;;;;;;;17.40;6.80;;;;;;;19.38;61.10;101051.91;2083580;28;20030;-68
2023/09/29 04:11:56;;;;;;;11.35;6.50;;;;;;;19.36;61.19;101054.19;2096523;28;20029;-68
2023/09/29 04:12:58;;;;;;;12.20;6.00;;;;;;;19.37;61.26;101055.78;2106892;28;20840;-68
2023/09/29 04:14:01;;;;;;;15.10;6.47;;;;;;;19.37;61.27;101055.78;2096968;28;20817;-68
2023/09/29 04:15:04;;;;;;;12.25;6.28;;;;;;;19.37;61.30;101053.84;2082528;28;20034;-68
2023/09/29 04:16:07;;;;;;;9.60;6.25;;;;;;;19.37;61.24;101048.38;2091008;28;20075;-68
2023/09/29 04:17:09;;;;;;;14.55;6.43;;;;;;;19.36;61.19;101048.72;2098529;28;20048;-68
2023/09/29 04:18:11;;;;;;;13.50;6.70;;;;;;;19.35;61.10;101045.19;2098450;28;20148;-68
2023/09/29 04:19:16;;;;;;;10.85;7.00;;;;;;;19.35;61.23;101058.00;2083017;28;20033;-68
2023/09/29 04:20:17;;;;;;;16.15;6.93;;;;;;;19.33;61.18;101054.84;2090666;28;20037;-69
2023/09/29 04:21:19;;;;;;;14.75;6.60;;;;;;;19.32;61.23;101053.22;2106511;28;20118;-69
2023/09/29 04:22:24;;;;;;;15.50;6.68;;;;;;;19.31;61.33;101055.13;2106882;28;20040;-68
2023/09/29 04:23:25;;;;;;;12.80;6.22;;;;;;;19.29;61.21;101054.66;2090482;28;20040;-69
2023/09/29 04:24:28;;;;;;;9.27;6.18;;;;;;;19.28;61.25;101055.00;2073629;28;20848;-68
2023/09/29 04:25:30;;;;;;;18.02;6.40;;;;;;;19.26;61.28;101049.84;2082765;28;20960;-68
2023/09/29 04:26:35;;;;;;;14.05;6.72;;;;;;;19.26;61.40;101059.97;2098606;28;20119;-70
2023/09/29 04:27:44;;;;;;;17.58;7.05;;;;;;;19.24;61.30;101057.56;2107457;28;20783;-67
2023/09/29 04:28:46;;;;;;;13.38;6.93;;;;;;;19.22;61.38;101054.34;2089403;28;20069;-68
2023/09/29 04:29:48;;;;;;;13.82;7.15;;;;;;;19.20;61.79;101057.44;2080697;28;20869;-68
2023/09/29 04:30:52;;;;;;;12.65;6.65;;;;;;;19.17;61.96;101060.78;2098636;28;20788;-67
2023/09/29 04:31:54;;;;;;;14.13;7.20;;;;;;;19.18;61.98;101065.13;2111930;28;20782;-67
2023/09/29 04:32:56;;;;;;;16.25;7.05;;;;;;;19.18;61.89;101058.88;2114616;28;20048;-68
2023/09/29 04:34:01;;;;;;;18.02;7.57;;;;;;;19.18;62.20;101061.59;2107580;28;20190;-66
2023/09/29 04:35:03;;;;;;;12.80;7.47;;;;;;;19.16;62.63;101055.66;2113621;28;20153;-68
2023/09/29 04:36:06;;;;;;;13.55;7.65;;;;;;;19.15;62.82;101065.75;2096915;28;20060;-68
2023/09/29 04:37:08;;;;;;;22.67;7.78;;;;;;;19.13;62.98;101053.56;2089154;28;20029;-68
2023/09/29 04:38:10;;;;;;;21.38;7.50;;;;;;;19.12;63.29;101057.44;2096821;28;20068;-68
2023/09/29 04:39:12;;;;;;;17.40;8.10;;;;;;;19.09;63.32;101058.88;2105346;28;20043;-68
2023/09/29 04:40:14;;;;;;;15.23;8.13;;;;;;;19.08;63.50;101056.50;2105200;28;20017;-68
2023/09/29 04:41:17;;;;;;;16.55;7.75;;;;;;;19.07;63.70;101057.59;2088676;28;20954;-68
2023/09/29 04:42:18;;;;;;;15.35;7.32;;;;;;;19.06;63.77;101064.97;2088441;28;20033;-67
2023/09/29 04:43:20;;;;;;;14.00;7.60;;;;;;;19.05;63.64;101059.88;2096880;28;20929;-67
2023/09/29 04:44:22;;;;;;;19.20;7.40;;;;;;;19.03;63.69;101056.66;2087664;28;20025;-67
2023/09/29 04:45:23;;;;;;;14.95;7.50;;;;;;;19.03;63.62;101060.16;2071942;28;20073;-67
2023/09/29 04:46:25;;;;;;;12.73;7.78;;;;;;;19.02;63.71;101060.50;2072380;28;20190;-67
2023/09/29 04:47:30;;;;;;;13.95;7.68;;;;;;;19.01;63.67;101054.25;2080500;28;20036;-67
2023/09/29 04:48:31;;;;;;;14.43;7.20;;;;;;;18.99;63.84;101061.94;2089021;28;20100;-67
2023/09/29 04:49:33;;;;;;;15.93;7.05;;;;;;;18.98;63.84;101054.91;2096801;28;20033;-67
2023/09/29 04:50:38;;;;;;;22.83;8.73;;;;;;;18.98;63.88;101060.34;2106001;28;20855;-67